Time;durP1;ratioP1;P1;durP2;ratioP2;P2;SDS_P1;SDS_P2;PMS_P1;PMS_P2;Temp;Humidity;BMP_temperature;BMP_pressure;BME280_temperature;BME280_humidity;BME280_pressure;Samples;Min_cycle;Max_cycle;Signal;HPM_P1;HPM_P2
2023/07/05 00:01:30;;;;;;;9.02;7.25;;;15.30;99.90;;;;;;5018398;28;90575;-35
2023/07/05 00:03:56;;;;;;;13.80;7.85;;;15.40;99.90;;;;;;5018973;28;89689;-34
2023/07/05 00:06:22;;;;;;;13.63;8.65;;;15.40;99.90;;;;;;5018997;28;89631;-37
2023/07/05 00:08:47;;;;;;;14.75;8.40;;;15.40;99.90;;;;;;5019023;28;89306;-33
2023/07/05 00:11:13;;;;;;;10.55;7.88;;;15.40;99.90;;;;;;5017792;28;88305;-33
2023/07/05 00:13:40;;;;;;;8.98;7.90;;;15.40;99.90;;;;;;5018813;28;87953;-35
2023/07/05 00:16:06;;;;;;;15.55;8.55;;;15.50;99.90;;;;;;5017926;28;89626;-34
2023/07/05 00:18:32;;;;;;;9.00;7.00;;;15.50;99.90;;;;;;5019284;28;88421;-34
2023/07/05 00:21:03;;;;;;;9.85;8.60;;;15.50;99.90;;;;;;5018879;28;90399;-33
2023/07/05 00:23:35;;;;;;;11.95;7.93;;;15.50;99.90;;;;;;5018006;28;89986;-31
2023/07/05 00:26:01;;;;;;;9.73;8.77;;;15.40;99.90;;;;;;5017362;28;90680;-33
2023/07/05 00:28:27;;;;;;;9.98;7.40;;;15.50;99.90;;;;;;5017781;28;89237;-33
2023/07/05 00:30:53;;;;;;;12.50;8.52;;;15.40;99.90;;;;;;5017811;28;90270;-32
2023/07/05 00:33:18;;;;;;;11.15;8.93;;;15.30;99.90;;;;;;5018269;28;89251;-31
2023/07/05 00:35:49;;;;;;;11.18;8.75;;;15.30;99.90;;;;;;5017631;28;90434;-32
2023/07/05 00:38:15;;;;;;;9.90;8.50;;;15.40;99.90;;;;;;5018290;28;89711;-32
2023/07/05 00:40:41;;;;;;;9.77;8.77;;;15.40;99.90;;;;;;5016453;28;90758;-32
2023/07/05 00:43:08;;;;;;;16.27;8.65;;;15.40;99.90;;;;;;4997716;28;93794;-31
2023/07/05 00:45:37;;;;;;;11.35;7.75;;;15.30;99.90;;;;;;4997519;28;89839;-33
2023/07/05 00:48:03;;;;;;;11.57;8.15;;;15.40;99.90;;;;;;4997225;28;90460;-33
2023/07/05 00:50:37;;;;;;;10.68;8.85;;;15.40;99.90;;;;;;4997968;28;89869;-36
2023/07/05 00:53:04;;;;;;;10.30;8.40;;;15.50;99.90;;;;;;4997450;28;89636;-32
2023/07/05 00:55:29;;;;;;;12.82;7.43;;;15.40;99.90;;;;;;4997858;28;89842;-33
2023/07/05 00:57:55;;;;;;;11.15;8.63;;;15.50;99.90;;;;;;4984990;28;89927;-31
2023/07/05 01:00:22;;;;;;;10.65;8.25;;;15.40;99.90;;;;;;4997989;28;89296;-32
2023/07/05 01:02:52;;;;;;;19.55;8.60;;;15.40;99.90;;;;;;4997469;28;89505;-33
2023/07/05 01:05:19;;;;;;;12.43;8.48;;;15.40;99.90;;;;;;4997662;28;89708;-32
2023/07/05 01:07:47;;;;;;;9.25;8.23;;;15.50;99.90;;;;;;4995812;28;87825;-33
2023/07/05 01:10:26;;;;;;;12.93;9.97;;;15.50;99.90;;;;;;4987514;28;90813;-33
2023/07/05 01:13:11;;;;;;;10.80;9.05;;;15.50;99.90;;;;;;4994798;28;90757;-32
2023/07/05 01:15:40;;;;;;;11.52;8.73;;;15.40;99.90;;;;;;4997175;28;89553;-35
2023/07/05 01:18:31;;;;;;;12.68;8.57;;;15.40;99.90;;;;;;4985812;28;89113;-32
2023/07/05 01:21:18;;;;;;;15.00;10.13;;;15.50;99.90;;;;;;4997160;28;90158;-32
2023/07/05 01:23:58;;;;;;;11.05;9.18;;;15.40;99.90;;;;;;4996687;28;89889;-32
2023/07/05 01:26:46;;;;;;;12.98;8.20;;;15.30;99.90;;;;;;4997142;28;90056;-33
2023/07/05 01:29:42;;;;;;;13.38;10.15;;;15.30;99.90;;;;;;4997008;28;89287;-33
2023/07/05 01:32:22;;;;;;;11.30;9.93;;;15.20;99.90;;;;;;4996515;28;90736;-31
2023/07/05 01:35:04;;;;;;;12.63;10.40;;;15.20;99.90;;;;;;4996909;28;89661;-35
2023/07/05 01:37:39;;;;;;;25.80;10.32;;;15.20;99.90;;;;;;4984940;28;89952;-36
2023/07/05 01:40:36;;;;;;;15.75;11.45;;;15.20;99.90;;;;;;4994452;28;90677;-35
2023/07/05 01:43:10;;;;;;;15.15;11.82;;;15.20;99.90;;;;;;5018161;28;90774;-35
2023/07/05 01:46:00;;;;;;;15.07;10.68;;;15.20;99.90;;;;;;5020958;28;89000;-32
2023/07/05 01:48:46;;;;;;;16.52;11.93;;;15.20;99.90;;;;;;5019450;28;89645;-35
2023/07/05 01:51:27;;;;;;;14.57;11.15;;;15.10;99.90;;;;;;5020202;28;88692;-31
2023/07/05 01:54:10;;;;;;;14.52;10.63;;;15.10;99.90;;;;;;5020476;28;90045;-33
2023/07/05 01:56:48;;;;;;;18.25;11.85;;;15.00;99.90;;;;;;5020078;28;89866;-35
2023/07/05 01:59:16;;;;;;;16.48;11.18;;;14.90;99.90;;;;;;5019304;28;89451;-35
2023/07/05 02:01:43;;;;;;;12.85;10.77;;;14.90;99.90;;;;;;5020287;28;89366;-37
2023/07/05 02:04:12;;;;;;;17.35;12.02;;;14.90;99.90;;;;;;5020321;28;89258;-35
2023/07/05 02:06:38;;;;;;;12.65;9.90;;;14.90;99.90;;;;;;5019627;28;90514;-34
2023/07/05 02:09:04;;;;;;;18.70;11.68;;;14.90;99.90;;;;;;5006981;28;90379;-36
2023/07/05 02:11:29;;;;;;;19.58;11.00;;;14.90;99.90;;;;;;5019636;28;87983;-34
2023/07/05 02:13:56;;;;;;;16.58;11.35;;;14.80;99.90;;;;;;5019549;28;90285;-35
2023/07/05 02:16:22;;;;;;;12.73;10.88;;;14.90;99.90;;;;;;5019222;28;89712;-34
2023/07/05 02:18:47;;;;;;;16.42;11.50;;;14.80;99.90;;;;;;5020388;28;89387;-36
2023/07/05 02:21:14;;;;;;;12.38;10.32;;;14.80;99.90;;;;;;5019406;28;89091;-37
2023/07/05 02:23:40;;;;;;;17.50;11.38;;;14.80;99.90;;;;;;5019684;28;90263;-37
2023/07/05 02:26:06;;;;;;;17.02;12.18;;;14.80;99.90;;;;;;5019627;28;90182;-34
2023/07/05 02:28:33;;;;;;;15.32;12.02;;;14.80;99.90;;;;;;5019941;28;89746;-32
2023/07/05 02:31:11;;;;;;;18.27;11.30;;;14.80;99.90;;;;;;5006974;28;90812;-36
2023/07/05 02:33:39;;;;;;;13.70;12.30;;;14.70;99.90;;;;;;5019022;28;89419;-32
2023/07/05 02:36:13;;;;;;;13.63;11.97;;;14.70;99.90;;;;;;5001930;28;89704;-32
2023/07/05 02:38:40;;;;;;;16.48;11.57;;;14.70;99.90;;;;;;5019428;28;89731;-37
2023/07/05 02:41:06;;;;;;;19.77;13.43;;;14.70;99.90;;;;;;5019440;28;89471;-35
2023/07/05 02:43:32;;;;;;;15.95;11.52;;;14.70;99.90;;;;;;5018783;28;90304;-34
2023/07/05 02:45:58;;;;;;;15.32;12.88;;;14.80;99.90;;;;;;5019060;28;90256;-34
2023/07/05 02:48:24;;;;;;;16.10;12.50;;;14.70;99.90;;;;;;5019559;28;89937;-34
2023/07/05 02:50:49;;;;;;;15.77;11.73;;;14.70;99.90;;;;;;5019306;27;88609;-34
2023/07/05 02:53:15;;;;;;;14.27;12.23;;;14.70;99.90;;;;;;5018548;28;90158;-36
2023/07/05 02:55:41;;;;;;;14.73;11.23;;;14.70;99.90;;;;;;5018181;28;91523;-34
2023/07/05 02:58:06;;;;;;;15.18;13.10;;;14.70;99.90;;;;;;5018112;28;90797;-35
2023/07/05 03:00:33;;;;;;;16.27;12.00;;;14.70;99.90;;;;;;5019639;28;87986;-33
2023/07/05 03:02:59;;;;;;;22.38;14.50;;;14.70;99.90;;;;;;5018827;28;89787;-32
2023/07/05 03:05:24;;;;;;;14.38;12.55;;;14.70;99.90;;;;;;5019509;28;90197;-36
2023/07/05 03:07:50;;;;;;;16.25;12.32;;;14.60;99.90;;;;;;5016135;28;89627;-35
2023/07/05 03:10:16;;;;;;;14.38;11.70;;;14.70;99.90;;;;;;5008456;28;88931;-35
2023/07/05 03:12:41;;;;;;;14.35;12.07;;;14.70;99.90;;;;;;5018742;28;90488;-35
2023/07/05 03:15:07;;;;;;;16.65;12.63;;;14.70;99.90;;;;;;5019358;28;90703;-33
2023/07/05 03:17:33;;;;;;;15.77;13.13;;;14.70;99.90;;;;;;5019314;28;89363;-34
2023/07/05 03:19:59;;;;;;;13.82;12.32;;;14.60;99.90;;;;;;5018552;28;90724;-34
2023/07/05 03:22:28;;;;;;;17.02;13.88;;;14.60;99.90;;;;;;5018021;28;88391;-34
2023/07/05 03:24:54;;;;;;;15.20;12.57;;;14.70;99.90;;;;;;5019142;28;90187;-34
2023/07/05 03:27:20;;;;;;;15.75;13.00;;;14.70;99.90;;;;;;5018239;28;89515;-34
2023/07/05 03:29:47;;;;;;;21.13;13.02;;;14.70;99.90;;;;;;5019108;28;89363;-33
2023/07/05 03:32:14;;;;;;;17.33;12.63;;;14.70;99.90;;;;;;5017731;28;89926;-34
2023/07/05 03:34:39;;;;;;;13.35;12.02;;;14.70;99.90;;;;;;5018628;28;89713;-34
2023/07/05 03:37:05;;;;;;;14.10;12.60;;;14.70;99.90;;;;;;5018113;28;89327;-35
2023/07/05 03:39:31;;;;;;;15.45;12.57;;;14.70;99.90;;;;;;5019483;28;88538;-35
2023/07/05 03:41:57;;;;;;;18.88;13.35;;;14.80;99.90;;;;;;5017489;28;90306;-35
2023/07/05 03:44:24;;;;;;;16.25;11.88;;;14.80;99.90;;;;;;5018207;28;90523;-35
2023/07/05 03:46:50;;;;;;;19.67;13.20;;;14.80;99.90;;;;;;5018402;28;90294;-33
2023/07/05 03:49:16;;;;;;;18.13;12.98;;;14.80;99.90;;;;;;5017581;28;89866;-33
2023/07/05 03:51:42;;;;;;;15.52;12.82;;;14.80;99.90;;;;;;5018001;28;89938;-36
2023/07/05 03:54:07;;;;;;;18.75;13.70;;;14.70;99.90;;;;;;5016846;28;90981;-34
2023/07/05 03:56:35;;;;;;;14.32;12.77;;;14.80;99.90;;;;;;5017720;28;89305;-34
2023/07/05 03:59:01;;;;;;;14.45;12.55;;;14.80;99.90;;;;;;5018988;28;89318;-34
2023/07/05 04:01:28;;;;;;;18.20;11.40;;;14.80;99.90;;;;;;5017623;28;90297;-33
2023/07/05 04:03:56;;;;;;;14.25;12.70;;;14.80;99.90;;;;;;5017689;27;89917;-36
2023/07/05 04:06:23;;;;;;;;;;;14.80;99.90;;;;;;5017653;28;89522;-35
2023/07/05 04:08:49;;;;;;;15.50;10.45;;;14.90;99.90;;;;;;5009055;28;88771;-34
2023/07/05 04:11:15;;;;;;;17.27;12.02;;;14.90;99.90;;;;;;5015966;28;90287;-34
2023/07/05 04:13:41;;;;;;;15.63;11.00;;;15.00;99.90;;;;;;5018535;28;88411;-37
2023/07/05 04:16:14;;;;;;;13.32;11.35;;;15.00;99.90;;;;;;5017395;28;89458;-36
2023/07/05 04:18:41;;;;;;;13.23;11.85;;;15.10;99.90;;;;;;5018597;28;88112;-35
2023/07/05 04:21:08;;;;;;;11.67;10.53;;;15.20;99.90;;;;;;4999954;28;88682;-34
2023/07/05 04:23:34;;;;;;;14.25;10.77;;;15.20;99.90;;;;;;5017632;28;89608;-36
2023/07/05 04:26:07;;;;;;;15.30;11.05;;;15.30;99.90;;;;;;5017889;28;89199;-37
2023/07/05 04:28:35;;;;;;;11.93;10.65;;;15.20;99.90;;;;;;5016836;28;89889;-33
2023/07/05 04:31:01;;;;;;;12.60;10.38;;;15.30;99.90;;;;;;5018163;28;90269;-36
2023/07/05 04:33:27;;;;;;;11.32;10.15;;;15.30;99.90;;;;;;5016653;28;91420;-37
2023/07/05 04:35:56;;;;;;;13.25;10.55;;;15.30;99.90;;;;;;5017500;28;90217;-34
2023/07/05 04:38:22;;;;;;;11.93;9.70;;;15.30;99.90;;;;;;5016498;28;88267;-36
2023/07/05 04:40:47;;;;;;;11.05;9.27;;;15.40;99.90;;;;;;5052680;22;90559;-33
2023/07/05 04:43:13;;;;;;;11.38;8.73;;;15.40;99.90;;;;;;5017505;27;90514;-32
2023/07/05 04:45:39;;;;;;;9.85;8.60;;;15.40;99.90;;;;;;5027420;27;89551;-32
2023/07/05 04:48:05;;;;;;;13.77;7.57;;;15.40;99.90;;;;;;5021752;27;90083;-34
2023/07/05 04:50:30;;;;;;;7.20;6.22;;;15.40;99.90;;;;;;5018502;27;90225;-34
2023/07/05 04:52:56;;;;;;;7.35;6.65;;;15.40;99.90;;;;;;5018309;27;89579;-33
2023/07/05 04:55:22;;;;;;;6.40;5.53;;;15.40;99.90;;;;;;5017916;27;89366;-35
2023/07/05 04:57:48;;;;;;;5.05;4.50;;;15.40;99.90;;;;;;5017709;27;89353;-36
2023/07/05 05:00:14;;;;;;;7.05;5.03;;;15.30;99.90;;;;;;5017902;27;90248;-35
2023/07/05 05:02:40;;;;;;;9.63;5.82;;;15.20;99.90;;;;;;5017842;27;90194;-33
2023/07/05 05:05:06;;;;;;;7.28;6.05;;;15.20;99.90;;;;;;5018145;27;91065;-38
2023/07/05 05:07:32;;;;;;;6.22;5.63;;;14.90;99.90;;;;;;5018344;27;89642;-34
2023/07/05 05:09:59;;;;;;;6.78;5.05;;;14.80;99.90;;;;;;5017644;27;90792;-40
2023/07/05 05:12:25;;;;;;;7.57;6.27;;;14.80;99.90;;;;;;5017651;27;89275;-38
2023/07/05 05:14:51;;;;;;;6.53;5.47;;;14.70;99.90;;;;;;5018474;27;90159;-35
2023/07/05 05:17:16;;;;;;;14.43;5.03;;;14.60;99.90;;;;;;5021141;27;88260;-35
2023/07/05 05:19:42;;;;;;;7.05;6.18;;;14.50;99.90;;;;;;5021407;27;92035;-34
2023/07/05 05:22:12;;;;;;;5.85;5.30;;;14.50;99.90;;;;;;5020194;27;90160;-34
2023/07/05 05:24:38;;;;;;;5.93;5.43;;;14.50;99.90;;;;;;5022894;27;90675;-34
2023/07/05 05:27:04;;;;;;;6.85;5.95;;;14.50;99.90;;;;;;5021071;27;89400;-36
2023/07/05 05:29:30;;;;;;;6.50;5.75;;;14.60;99.90;;;;;;5019939;27;90386;-38
2023/07/05 05:31:56;;;;;;;6.55;5.40;;;14.60;99.90;;;;;;5020533;27;89874;-34
2023/07/05 05:34:25;;;;;;;8.35;6.38;;;14.80;99.90;;;;;;5020944;27;89635;-34
2023/07/05 05:36:51;;;;;;;6.18;5.50;;;14.80;99.90;;;;;;5006927;27;88831;-32
2023/07/05 05:39:16;;;;;;;6.20;5.35;;;14.80;99.90;;;;;;5020276;27;90315;-34
2023/07/05 05:41:42;;;;;;;6.75;5.70;;;14.90;99.90;;;;;;5020767;27;89669;-38
2023/07/05 05:44:08;;;;;;;5.72;5.18;;;14.90;99.90;;;;;;5020473;27;90964;-35
2023/07/05 05:46:33;;;;;;;6.35;5.75;;;15.20;99.90;;;;;;5020606;27;89197;-40
2023/07/05 05:48:59;;;;;;;5.75;5.05;;;15.40;99.90;;;;;;5022604;27;89442;-37
2023/07/05 05:51:25;;;;;;;5.70;4.47;;;15.30;99.90;;;;;;5020576;27;90050;-38
2023/07/05 05:53:51;;;;;;;6.22;4.70;;;15.40;99.90;;;;;;5029168;27;89495;-32
2023/07/05 05:56:17;;;;;;;6.38;5.68;;;15.30;99.90;;;;;;5038972;27;88735;-35
2023/07/05 05:58:42;;;;;;;4.90;4.40;;;15.20;99.90;;;;;;5021082;27;89916;-34
2023/07/05 06:01:08;;;;;;;4.22;3.83;;;15.20;99.90;;;;;;5001849;27;93196;-36
2023/07/05 06:03:35;;;;;;;6.60;4.22;;;15.10;99.90;;;;;;5020769;27;89097;-35
2023/07/05 06:06:00;;;;;;;5.90;4.60;;;15.10;99.90;;;;;;5020356;27;89096;-34
2023/07/05 06:08:27;;;;;;;6.00;5.13;;;15.00;99.90;;;;;;5027761;27;89768;-37
2023/07/05 06:10:58;;;;;;;8.32;4.75;;;15.00;99.90;;;;;;5025802;27;90761;-38
2023/07/05 06:13:26;;;;;;;6.30;4.78;;;15.00;99.90;;;;;;5030725;27;89741;-39
2023/07/05 06:15:59;;;;;;;6.75;4.70;;;15.00;99.90;;;;;;5033112;27;90353;-34
2023/07/05 06:18:26;;;;;;;10.52;4.55;;;14.90;99.90;;;;;;5017716;27;90128;-37
2023/07/05 06:20:53;;;;;;;7.72;5.13;;;14.90;99.90;;;;;;5017562;27;89180;-35
2023/07/05 06:23:19;;;;;;;20.23;5.20;;;14.90;99.90;;;;;;5017721;27;88974;-38
2023/07/05 06:25:49;;;;;;;6.72;5.00;;;14.80;99.90;;;;;;5017611;27;89874;-34
2023/07/05 06:28:16;;;;;;;7.20;4.50;;;14.90;99.90;;;;;;5017560;27;91661;-38
2023/07/05 06:30:42;;;;;;;6.28;4.53;;;15.00;99.90;;;;;;5018088;27;89840;-37
2023/07/05 06:33:07;;;;;;;5.05;4.60;;;15.40;99.90;;;;;;5017633;27;89763;-38
2023/07/05 06:35:33;;;;;;;4.78;4.10;;;15.70;99.90;;;;;;5017525;27;89722;-39
2023/07/05 06:37:59;;;;;;;5.45;4.40;;;15.90;99.90;;;;;;5018286;27;91160;-36
2023/07/05 06:40:24;;;;;;;5.97;3.97;;;16.10;99.90;;;;;;5016796;27;90027;-37
2023/07/05 06:42:50;;;;;;;6.88;4.80;;;16.30;99.90;;;;;;5017016;27;90110;-37
2023/07/05 06:45:16;;;;;;;5.00;4.45;;;16.50;99.90;;;;;;5017636;27;88630;-35
2023/07/05 06:47:42;;;;;;;5.68;4.32;;;16.70;99.90;;;;;;5017362;27;89914;-34
2023/07/05 06:50:08;;;;;;;7.13;4.57;;;16.90;99.90;;;;;;5017376;27;89601;-33
2023/07/05 06:52:34;;;;;;;6.90;3.95;;;16.90;99.90;;;;;;5018206;27;89661;-40
2023/07/05 06:55:00;;;;;;;7.82;3.88;;;16.70;99.90;;;;;;5031191;27;89680;-36
2023/07/05 06:57:26;;;;;;;5.25;4.05;;;16.60;99.90;;;;;;4999651;28;90464;-37
2023/07/05 06:59:52;;;;;;;6.20;4.47;;;16.70;99.90;;;;;;5016939;27;90849;-33
2023/07/05 07:02:17;;;;;;;11.18;4.88;;;16.70;99.90;;;;;;5017934;27;90041;-38
2023/07/05 07:04:43;;;;;;;7.53;4.38;;;16.60;99.90;;;;;;5016620;27;89411;-37
2023/07/05 07:07:08;;;;;;;5.57;4.43;;;16.60;99.90;;;;;;5016388;27;88326;-36
2023/07/05 07:09:34;;;;;;;6.10;3.92;;;16.50;99.90;;;;;;4997419;28;91179;-35
2023/07/05 07:12:00;;;;;;;6.25;4.68;;;16.30;99.90;;;;;;5016122;27;89792;-33
2023/07/05 07:14:26;;;;;;;5.97;4.30;;;16.20;99.90;;;;;;5016908;27;90711;-37
2023/07/05 07:16:51;;;;;;;5.53;4.18;;;16.10;99.90;;;;;;5016869;27;90214;-36
2023/07/05 07:19:17;;;;;;;5.65;3.97;;;15.80;99.90;;;;;;5016081;27;90116;-34
2023/07/05 07:21:44;;;;;;;4.85;3.75;;;15.60;99.90;;;;;;5016284;27;89496;-37
2023/07/05 07:24:09;;;;;;;4.97;4.50;;;15.50;99.90;;;;;;5015891;27;89160;-34
2023/07/05 07:26:36;;;;;;;5.43;4.40;;;15.50;99.90;;;;;;5017434;27;89972;-39
2023/07/05 07:29:02;;;;;;;4.22;3.83;;;15.50;99.90;;;;;;5015686;27;89601;-35
2023/07/05 07:31:32;;;;;;;6.07;4.13;;;15.40;99.90;;;;;;5016069;27;89298;-37
2023/07/05 07:34:05;;;;;;;6.50;3.55;;;15.30;99.90;;;;;;5019348;27;89611;-35
2023/07/05 07:36:32;;;;;;;5.82;3.50;;;15.40;99.90;;;;;;5016515;27;90021;-32
2023/07/05 07:38:59;;;;;;;7.90;3.85;;;15.40;99.90;;;;;;5015698;27;89507;-34
2023/07/05 07:41:33;;;;;;;5.32;3.97;;;15.50;99.90;;;;;;5015464;27;90095;-34
2023/07/05 07:44:02;;;;;;;7.20;4.03;;;15.60;99.90;;;;;;5016014;27;89933;-31
2023/07/05 07:46:29;;;;;;;5.72;4.25;;;15.50;99.90;;;;;;5015038;27;90556;-32
2023/07/05 07:48:56;;;;;;;8.07;3.50;;;15.40;99.90;;;;;;5018130;27;90514;-34
2023/07/05 07:51:24;;;;;;;8.73;4.20;;;15.30;99.90;;;;;;5016077;27;91352;-35
2023/07/05 07:53:51;;;;;;;5.20;4.43;;;15.20;99.90;;;;;;5024421;27;89339;-34
2023/07/05 07:56:19;;;;;;;4.15;3.67;;;15.00;99.90;;;;;;5021325;27;90388;-30
2023/07/05 07:58:46;;;;;;;;;;;15.00;99.90;;;;;;5025473;27;89559;-36
2023/07/05 08:01:18;;;;;;;4.50;3.17;;;14.70;99.90;;;;;;5021856;27;89727;-32
2023/07/05 08:03:44;;;;;;;6.72;2.17;;;14.20;99.90;;;;;;5017262;27;89280;-38
2023/07/05 08:06:12;;;;;;;3.10;1.93;;;13.90;99.90;;;;;;5017532;27;89340;-34
2023/07/05 08:08:40;;;;;;;4.63;2.38;;;13.70;99.90;;;;;;5016270;27;90067;-35
2023/07/05 08:11:10;;;;;;;4.28;2.33;;;13.80;99.90;;;;;;5015487;27;88974;-33
2023/07/05 08:13:37;;;;;;;2.90;2.20;;;13.90;99.90;;;;;;5015953;27;90287;-33
2023/07/05 08:16:03;;;;;;;2.92;1.88;;;13.80;99.90;;;;;;5015384;27;90588;-34
2023/07/05 08:18:29;;;;;;;2.65;2.15;;;13.80;99.90;;;;;;5016502;27;89720;-31
2023/07/05 08:20:56;;;;;;;3.45;1.80;;;13.70;99.90;;;;;;5015187;27;89402;-32
2023/07/05 08:23:22;;;;;;;1.75;1.38;;;13.60;99.90;;;;;;5015416;27;89690;-37
2023/07/05 08:25:56;;;;;;;2.58;1.80;;;13.60;99.90;;;;;;5015943;27;90566;-32
2023/07/05 08:28:26;;;;;;;1.30;1.20;;;13.50;99.90;;;;;;5015461;27;89203;-34
2023/07/05 08:30:57;;;;;;;1.30;1.20;;;13.50;99.90;;;;;;5015372;27;89858;-32
2023/07/05 08:33:26;;;;;;;3.65;1.50;;;13.50;99.90;;;;;;5028248;27;88988;-35
2023/07/05 08:36:12;;;;;;;1.30;1.20;;;13.50;99.90;;;;;;5016062;27;90381;-37
2023/07/05 08:38:39;;;;;;;1.30;1.20;;;13.40;99.90;;;;;;5015050;27;91338;-33
2023/07/05 08:41:37;;;;;;;1.85;1.40;;;13.40;99.90;;;;;;5015038;27;89406;-31
2023/07/05 08:44:21;;;;;;;1.40;1.30;;;13.30;99.90;;;;;;5004540;27;89443;-30
2023/07/05 08:47:25;;;;;;;2.88;1.63;;;13.30;99.90;;;;;;5015497;27;90247;-32
2023/07/05 08:50:09;;;;;;;1.92;1.10;;;13.30;99.90;;;;;;4953118;28;90076;-38
2023/07/05 08:52:42;;;;;;;1.77;1.42;;;13.20;99.90;;;;;;5015289;27;89493;-36
2023/07/05 08:55:13;;;;;;;1.88;1.60;;;13.10;99.90;;;;;;5031071;27;89411;-37
2023/07/05 08:57:46;;;;;;;2.65;1.60;;;13.10;99.90;;;;;;5019574;27;89553;-36
2023/07/05 09:00:15;;;;;;;4.28;2.28;;;13.10;99.90;;;;;;5018004;27;91336;-32
2023/07/05 09:02:41;;;;;;;2.67;1.88;;;13.10;99.90;;;;;;5018371;27;89526;-35
2023/07/05 09:05:16;;;;;;;5.57;1.85;;;13.00;99.90;;;;;;5018714;27;89582;-30
2023/07/05 09:07:50;;;;;;;2.50;1.70;;;13.00;99.90;;;;;;5018199;27;90351;-32
2023/07/05 09:10:28;;;;;;;1.88;1.77;;;13.00;99.90;;;;;;5018237;27;90135;-32
2023/07/05 09:13:38;;;;;;;3.05;1.98;;;12.90;99.90;;;;;;5019347;27;88897;-32
2023/07/05 09:16:24;;;;;;;4.05;1.95;;;12.90;99.90;;;;;;5013878;27;89594;-30
2023/07/05 09:19:14;;;;;;;3.25;1.55;;;12.90;99.90;;;;;;5024418;27;90154;-35
2023/07/05 09:21:52;;;;;;;1.05;0.95;;;12.80;99.90;;;;;;5008766;27;88855;-33
2023/07/05 09:24:23;;;;;;;;;;;12.70;99.90;;;;;;5018394;27;90149;-36
2023/07/05 09:27:01;;;;;;;2.58;2.13;;;12.70;99.90;;;;;;5020850;28;88740;-34
2023/07/05 09:29:32;;;;;;;2.93;1.70;;;12.70;99.90;;;;;;4987747;28;89230;-38
2023/07/05 09:32:04;;;;;;;5.00;1.67;;;12.70;99.90;;;;;;5017086;27;91230;-34
2023/07/05 09:34:55;;;;;;;6.25;2.75;;;12.60;99.90;;;;;;5017804;27;90236;-35
2023/07/05 09:37:32;;;;;;;5.70;2.35;;;12.60;99.90;;;;;;5018841;27;87736;-33
2023/07/05 09:40:22;;;;;;;2.67;2.43;;;12.60;99.90;;;;;;5019097;27;89022;-36
2023/07/05 09:43:02;;;;;;;5.10;1.63;;;12.60;99.90;;;;;;5025700;27;90643;-32
2023/07/05 09:45:28;;;;;;;3.63;2.28;;;12.60;99.90;;;;;;5005211;27;90199;-31
2023/07/05 09:48:00;;;;;;;5.00;2.17;;;12.60;99.90;;;;;;4999305;27;89566;-36
2023/07/05 09:50:26;;;;;;;1.73;1.23;;;12.60;99.90;;;;;;5018359;27;89083;-31
2023/07/05 09:52:58;;;;;;;6.30;2.35;;;12.70;99.90;;;;;;5016650;27;90281;-33
2023/07/05 09:55:27;;;;;;;4.38;2.40;;;12.60;99.90;;;;;;5017709;27;89668;-32
2023/07/05 09:57:53;;;;;;;4.65;2.55;;;12.60;99.90;;;;;;5016711;27;89484;-31
2023/07/05 10:00:36;;;;;;;3.38;2.70;;;12.70;99.90;;;;;;4998941;27;89817;-30
2023/07/05 10:03:19;;;;;;;7.03;2.90;;;12.70;99.90;;;;;;5013910;27;89437;-31
2023/07/05 10:05:53;;;;;;;6.88;3.17;;;12.80;99.90;;;;;;5018063;27;88951;-37
2023/07/05 10:08:21;;;;;;;5.05;2.38;;;12.70;99.90;;;;;;5027170;27;88876;-31
2023/07/05 10:10:48;;;;;;;5.32;2.28;;;12.70;99.90;;;;;;5029964;27;90192;-37
2023/07/05 10:13:26;;;;;;;12.05;2.67;;;12.80;99.90;;;;;;5030743;27;89791;-36
2023/07/05 10:15:58;;;;;;;7.85;3.17;;;12.80;99.90;;;;;;5000464;27;88887;-36
2023/07/05 10:18:36;;;;;;;3.90;2.20;;;12.80;99.90;;;;;;5017814;27;88867;-35
2023/07/05 10:21:05;;;;;;;5.72;2.25;;;12.80;99.90;;;;;;5029069;27;90016;-33
2023/07/05 10:23:34;;;;;;;11.38;3.45;;;12.80;99.90;;;;;;5011229;27;91575;-38
2023/07/05 10:26:04;;;;;;;5.45;2.80;;;12.80;99.90;;;;;;5017631;27;90293;-39
2023/07/05 10:28:33;;;;;;;5.38;2.92;;;12.70;99.90;;;;;;5017939;27;89943;-39
2023/07/05 10:31:00;;;;;;;7.07;2.47;;;12.70;99.90;;;;;;5017627;27;90447;-38
2023/07/05 10:33:29;;;;;;;2.92;2.67;;;12.70;99.90;;;;;;5018205;27;89722;-32
2023/07/05 10:36:15;;;;;;;5.97;1.98;;;12.80;99.90;;;;;;5022439;27;88334;-37
2023/07/05 10:38:46;;;;;;;4.88;2.65;;;12.70;99.90;;;;;;5021086;27;90632;-31
2023/07/05 10:41:20;;;;;;;8.50;2.67;;;12.80;99.90;;;;;;5017128;27;89836;-31
2023/07/05 10:43:49;;;;;;;4.25;2.53;;;12.70;99.90;;;;;;5017935;27;90063;-33
2023/07/05 10:46:18;;;;;;;2.83;2.03;;;12.70;99.90;;;;;;5027525;27;88937;-35
2023/07/05 10:48:44;;;;;;;3.30;2.65;;;12.80;99.90;;;;;;5032868;27;90217;-31
2023/07/05 10:51:21;;;;;;;4.03;2.38;;;12.80;99.90;;;;;;5035474;27;90642;-37
2023/07/05 10:54:05;;;;;;;2.55;1.83;;;12.80;99.90;;;;;;5034209;27;89952;-36
2023/07/05 10:56:33;;;;;;;3.08;2.50;;;12.90;99.90;;;;;;5025180;27;89843;-37
2023/07/05 10:59:33;;;;;;;2.40;1.92;;;12.80;99.90;;;;;;5030338;27;88685;-31
2023/07/05 11:02:06;;;;;;;4.25;2.45;;;12.80;99.90;;;;;;5017338;27;90304;-35
2023/07/05 11:04:33;;;;;;;4.85;3.38;;;12.80;99.90;;;;;;5026173;27;89887;-33
2023/07/05 11:07:10;;;;;;;6.20;2.38;;;12.80;99.90;;;;;;5021967;27;89111;-32
2023/07/05 11:09:37;;;;;;;6.78;2.60;;;12.70;99.90;;;;;;5014869;27;89949;-33
2023/07/05 11:12:15;;;;;;;5.45;2.95;;;12.80;99.90;;;;;;4998622;27;91712;-34
2023/07/05 11:14:41;;;;;;;4.40;2.20;;;12.80;99.90;;;;;;5016178;27;90493;-36
2023/07/05 11:17:19;;;;;;;2.60;2.40;;;12.70;99.90;;;;;;5017492;27;90956;-33
2023/07/05 11:19:45;;;;;;;3.05;2.35;;;12.80;99.90;;;;;;5005591;27;90265;-32
2023/07/05 11:22:36;;;;;;;5.35;2.72;;;12.70;99.90;;;;;;5015841;27;90443;-35
2023/07/05 11:25:02;;;;;;;2.70;2.47;;;12.70;99.90;;;;;;5017463;27;90319;-35
2023/07/05 11:27:31;;;;;;;4.28;1.77;;;12.60;99.90;;;;;;4997280;28;89788;-33
2023/07/05 11:29:58;;;;;;;4.05;2.22;;;12.70;99.90;;;;;;5016656;27;88401;-33
2023/07/05 11:32:47;;;;;;;8.70;2.38;;;12.60;99.90;;;;;;5016428;27;90326;-39
2023/07/05 11:35:45;;;;;;;4.15;2.13;;;12.60;99.90;;;;;;5015739;27;89272;-30
2023/07/05 11:38:36;;;;;;;5.75;2.78;;;12.50;99.90;;;;;;5015841;27;89519;-34
2023/07/05 11:41:04;;;;;;;2.97;2.15;;;12.50;99.90;;;;;;5015944;27;89801;-30
2023/07/05 11:43:42;;;;;;;5.93;1.73;;;12.50;99.90;;;;;;5015340;27;90332;-34
2023/07/05 11:46:44;;;;;;;3.20;1.90;;;12.50;99.90;;;;;;5015629;27;90464;-31
2023/07/05 11:49:24;;;;;;;5.13;2.40;;;12.40;99.90;;;;;;5027476;27;88836;-35
2023/07/05 11:52:08;;;;;;;8.77;1.60;;;12.40;99.90;;;;;;5003719;27;89879;-31
2023/07/05 11:55:03;;;;;;;5.90;1.75;;;12.40;99.90;;;;;;5029142;27;90194;-35
2023/07/05 11:57:34;;;;;;;4.75;2.25;;;12.40;99.90;;;;;;5011424;27;90304;-31
2023/07/05 12:00:17;;;;;;;5.40;1.92;;;12.40;99.90;;;;;;5015890;27;89196;-33
2023/07/05 12:03:06;;;;;;;6.97;2.42;;;12.40;99.90;;;;;;4998707;27;88433;-36
2023/07/05 12:05:33;;;;;;;5.40;2.38;;;12.50;99.90;;;;;;5017099;27;90401;-37
2023/07/05 12:08:06;;;;;;;5.93;2.53;;;12.40;99.90;;;;;;5015945;27;92123;-32
2023/07/05 12:10:34;;;;;;;2.67;2.17;;;12.50;99.90;;;;;;5017542;27;90438;-31
2023/07/05 12:13:02;;;;;;;4.43;2.72;;;12.50;99.90;;;;;;5016296;27;89024;-30
2023/07/05 12:15:29;;;;;;;3.92;2.97;;;12.50;99.90;;;;;;5017049;27;90292;-31
2023/07/05 12:17:55;;;;;;;8.27;2.92;;;12.50;99.90;;;;;;5016652;27;89241;-34
2023/07/05 12:20:28;;;;;;;2.92;2.13;;;12.60;99.90;;;;;;5017179;27;89539;-36
2023/07/05 12:22:55;;;;;;;5.18;3.03;;;12.60;99.90;;;;;;5012661;27;88708;-35
2023/07/05 12:25:22;;;;;;;6.47;2.50;;;12.70;99.90;;;;;;5016556;27;90483;-32
2023/07/05 12:27:49;;;;;;;5.25;2.60;;;12.80;99.90;;;;;;5016389;27;89791;-34
2023/07/05 12:30:19;;;;;;;3.83;2.50;;;12.90;99.90;;;;;;5015808;27;88866;-34
2023/07/05 12:32:53;;;;;;;11.98;3.13;;;12.90;99.90;;;;;;5017104;27;88954;-35
2023/07/05 12:35:22;;;;;;;4.80;2.70;;;12.90;99.90;;;;;;5020032;27;90900;-35
2023/07/05 12:37:49;;;;;;;6.03;2.60;;;12.90;99.90;;;;;;5017214;27;90150;-34
2023/07/05 12:40:34;;;;;;;4.32;1.88;;;13.00;99.90;;;;;;4998114;28;89566;-33
2023/07/05 12:43:03;;;;;;;9.50;3.25;;;13.00;99.90;;;;;;5009726;27;90410;-37
2023/07/05 12:45:34;;;;;;;4.45;2.78;;;13.10;99.90;;;;;;5012959;27;90182;-33
2023/07/05 12:48:21;;;;;;;5.05;2.85;;;13.00;99.90;;;;;;5015764;27;89537;-31
2023/07/05 12:50:47;;;;;;;10.02;2.72;;;13.00;99.90;;;;;;5007445;27;89315;-33
2023/07/05 12:53:15;;;;;;;9.50;3.42;;;13.00;99.90;;;;;;5019551;27;88699;-32
2023/07/05 12:55:55;;;;;;;10.03;2.90;;;13.10;99.90;;;;;;5009030;28;92363;-33
2023/07/05 12:58:23;;;;;;;4.85;3.35;;;13.10;99.90;;;;;;4998136;28;92242;-31